»·PEaware :: N28SN KAPA-KEGE

N28SN :: KAPA-KEGE

FLIGHT INFORMATION

Flight Status: Arrived
Operator: Privately registered:
United States
More flights under this callsign
Pilot: Stephen N. (18550)
Aircraft: Unknown
(RV8)
More flights by this aircraft type
Origin: KAPA Centennial
United States
Destination: KEGE Eagle Co Regl
United States
More flights between these airports :: More routes between these airports
Route: ROCKI5 RLG
File this flight plan on PilotEdge
Remarks: LDA RWY 25 at Eagle
Altitude:
(Current/Filed)
16,000ft
Speed:
(Current/Filed)
175kts
Departed: 08-Apr-20 01:20 PM
Arrived: 08-Apr-20 02:37 PM
Distance/Time
Traveled:
96nm/1:16
Distance/Time
To Go:
Arrived

Flight Plot

Page will automatically refresh every two minutes.


Map Options




Map Legend


Flown Route
Filed Route
Departure Airport
Arrival Airport
Navaid (VOR, NDB)
Fix

Horizontal Profiles

Position Reports

Time Latitude Longitude Heading Altitude Ground
Speed
08-Apr-20 13:06 39.570278 -104.847940 179 5887ft 0kts
08-Apr-20 13:07 39.570278 -104.847940 179 5887ft 0kts
08-Apr-20 13:08 39.570278 -104.847940 179 5887ft 0kts
08-Apr-20 13:09 39.570278 -104.847940 179 5887ft 0kts
08-Apr-20 13:10 39.570278 -104.847940 179 5887ft 0kts
08-Apr-20 13:11 39.570278 -104.847940 179 5887ft 0kts
08-Apr-20 13:12 39.570278 -104.847940 180 5887ft 0kts
08-Apr-20 13:13 39.570135 -104.848181 251 5887ft 0kts
08-Apr-20 13:14 39.573841 -104.849604 0 5887ft 26kts
08-Apr-20 13:15 39.581983 -104.850013 2 5887ft 31kts
08-Apr-20 13:16 39.584074 -104.850201 303 5887ft 0kts
08-Apr-20 13:17 39.584074 -104.850201 303 5887ft 0kts
08-Apr-20 13:18 39.584074 -104.850201 303 5887ft 0kts
08-Apr-20 13:19 39.576134 -104.851419 176 5940ft 93kts
08-Apr-20 13:20 39.543144 -104.852546 180 6814ft 126kts
08-Apr-20 13:21 39.508161 -104.853615 179 7903ft 125kts
08-Apr-20 13:22 39.464668 -104.853383 179 8004ft 179kts
08-Apr-20 13:23 39.426697 -104.817973 117 8001ft 187kts
08-Apr-20 13:24 39.416311 -104.772502 29 9381ft 118kts
08-Apr-20 13:25 39.447524 -104.772069 356 10187ft 115kts
08-Apr-20 13:26 39.479904 -104.766498 4 10930ft 120kts
08-Apr-20 13:27 39.512410 -104.757322 5 11666ft 119kts
08-Apr-20 13:28 39.544896 -104.747238 6 12335ft 121kts
08-Apr-20 13:29 39.577789 -104.736749 5 12964ft 122kts
08-Apr-20 13:30 39.610791 -104.726162 5 13543ft 123kts
08-Apr-20 13:31 39.644153 -104.715434 4 14083ft 124kts
08-Apr-20 13:32 39.677705 -104.704633 4 14582ft 125kts
08-Apr-20 13:33 39.711412 -104.693771 3 15045ft 125kts
08-Apr-20 13:34 39.746781 -104.682503 6 14926ft 154kts
08-Apr-20 13:35 39.792762 -104.667518 1 14283ft 159kts
08-Apr-20 13:36 39.814898 -104.694944 293 14963ft 111kts
08-Apr-20 13:37 39.826228 -104.730981 286 15335ft 102kts
08-Apr-20 13:38 39.834938 -104.766259 284 15628ft 102kts
08-Apr-20 13:39 39.843001 -104.801577 283 15902ft 102kts
08-Apr-20 13:40 39.851149 -104.838226 284 16019ft 112kts
08-Apr-20 13:41 39.860163 -104.878896 284 16022ft 124kts
08-Apr-20 13:42 39.869889 -104.923005 284 16022ft 131kts
08-Apr-20 13:43 39.879846 -104.968448 284 16024ft 133kts
08-Apr-20 13:44 39.889850 -105.014313 283 16025ft 134kts
08-Apr-20 13:45 39.899874 -105.060411 283 16027ft 134kts
08-Apr-20 13:46 39.910059 -105.107370 283 16028ft 134kts
08-Apr-20 13:47 39.920173 -105.154114 283 16025ft 135kts
08-Apr-20 13:48 39.930266 -105.200854 283 16018ft 135kts
08-Apr-20 13:49 39.940351 -105.247652 283 16011ft 135kts
08-Apr-20 13:50 39.950491 -105.294811 283 16002ft 135kts
08-Apr-20 13:51 39.960602 -105.341937 283 15993ft 135kts
08-Apr-20 13:52 39.970703 -105.389122 283 16002ft 134kts
08-Apr-20 13:53 39.980514 -105.435091 283 16032ft 128kts
08-Apr-20 13:54 39.990192 -105.480602 283 15991ft 137kts
08-Apr-20 13:55 40.000391 -105.528407 283 16010ft 136kts
08-Apr-20 13:56 40.009663 -105.572074 283 16038ft 136kts
08-Apr-20 13:57 40.018954 -105.615941 283 16060ft 136kts
08-Apr-20 13:58 40.028341 -105.665522 270 16071ft 136kts
08-Apr-20 13:59 40.027238 -105.711452 267 16064ft 137kts
08-Apr-20 14:00 40.025811 -105.758355 267 16063ft 135kts
08-Apr-20 14:01 40.024406 -105.802931 267 16063ft 132kts
08-Apr-20 14:02 40.022961 -105.847999 267 16063ft 130kts
08-Apr-20 14:03 40.021558 -105.891157 267 16063ft 127kts
08-Apr-20 14:04 40.020063 -105.936441 267 16062ft 122kts
08-Apr-20 14:05 40.018606 -105.979606 266 16061ft 115kts
08-Apr-20 14:06 40.017219 -106.019761 266 16060ft 106kts
08-Apr-20 14:07 40.015896 -106.057523 267 16062ft 103kts
08-Apr-20 14:08 40.014633 -106.093637 266 16060ft 96kts
08-Apr-20 14:09 40.013423 -106.126714 266 16058ft 85kts
08-Apr-20 14:10 40.012118 -106.153918 260 16038ft 65kts
08-Apr-20 14:11 40.011664 -106.178499 255 15452ft 70kts
08-Apr-20 14:12 40.009971 -106.204445 266 14975ft 72kts
08-Apr-20 14:13 40.009512 -106.230098 265 14597ft 74kts
08-Apr-20 14:14 40.008462 -106.255960 267 14365ft 71kts
08-Apr-20 14:15 40.008154 -106.281752 270 14368ft 68kts
08-Apr-20 14:16 40.006954 -106.306930 263 14465ft 69kts
08-Apr-20 14:17 40.005821 -106.332293 264 14611ft 75kts
08-Apr-20 14:18 40.004765 -106.365767 267 14600ft 107kts
08-Apr-20 14:19 40.003477 -106.408339 267 14585ft 124kts
08-Apr-20 14:20 39.986240 -106.445112 211 14569ft 143kts
08-Apr-20 14:21 39.947436 -106.465456 204 14381ft 156kts
08-Apr-20 14:23 39.905253 -106.483484 203 14153ft 164kts
08-Apr-20 14:24 39.862056 -106.501651 203 14112ft 161kts
08-Apr-20 14:25 39.818755 -106.519875 203 13945ft 166kts
08-Apr-20 14:26 39.774686 -106.538388 202 13702ft 171kts
08-Apr-20 14:27 39.728493 -106.557773 202 13210ft 177kts
08-Apr-20 14:28 39.690797 -106.592378 255 12455ft 176kts
08-Apr-20 14:29 39.681540 -106.651709 261 12079ft 149kts
08-Apr-20 14:30 39.673718 -106.705116 257 10559ft 136kts
08-Apr-20 14:31 39.666567 -106.749609 257 9638ft 119kts
08-Apr-20 14:32 39.661710 -106.781881 255 8971ft 81kts
08-Apr-20 14:33 39.657617 -106.809115 254 8427ft 74kts
08-Apr-20 14:34 39.653930 -106.837114 254 7900ft 94kts
08-Apr-20 14:35 39.648291 -106.873744 251 7191ft 106kts
08-Apr-20 14:36 39.644061 -106.903853 253 6594ft 67kts
08-Apr-20 14:37 39.643050 -106.912524 258 6548ft 7kts
08-Apr-20 14:38 39.640939 -106.915644 168 6548ft 0kts

Navigation Log

Ident Type
Flight plan parsing failed, navigation log unavailable